sensor_id;sensor_type;location;lat;lon;timestamp;pressure;altitude;pressure_sealevel;temperature;humidity
50702;BME280;36670;50.094;8.496;2023-05-20T00:01:33;100716.25;;;17.70;45.23
50702;BME280;36670;50.094;8.496;2023-05-20T00:03:58;100691.34;;;17.34;45.99
50702;BME280;36670;50.094;8.496;2023-05-20T00:06:23;100705.25;;;17.39;46.16
50702;BME280;36670;50.094;8.496;2023-05-20T00:08:48;100700.97;;;17.13;47.13
50702;BME280;36670;50.094;8.496;2023-05-20T00:11:13;100696.44;;;17.27;46.10
50702;BME280;36670;50.094;8.496;2023-05-20T00:13:38;100696.47;;;17.17;47.34
50702;BME280;36670;50.094;8.496;2023-05-20T00:16:04;100700.91;;;17.23;46.82
50702;BME280;36670;50.094;8.496;2023-05-20T00:18:29;100704.41;;;17.44;46.16
50702;BME280;36670;50.094;8.496;2023-05-20T00:20:56;100693.66;;;17.62;45.71
50702;BME280;36670;50.094;8.496;2023-05-20T00:23:21;100695.19;;;17.44;46.47
50702;BME280;36670;50.094;8.496;2023-05-20T00:25:46;100699.13;;;17.43;46.44
50702;BME280;36670;50.094;8.496;2023-05-20T00:28:11;100697.94;;;17.54;46.63
50702;BME280;36670;50.094;8.496;2023-05-20T00:30:40;100695.28;;;17.28;47.24
50702;BME280;36670;50.094;8.496;2023-05-20T00:33:05;100693.50;;;17.48;47.29
50702;BME280;36670;50.094;8.496;2023-05-20T00:35:31;100702.22;;;17.36;46.87
50702;BME280;36670;50.094;8.496;2023-05-20T00:37:56;100690.31;;;17.20;47.37
50702;BME280;36670;50.094;8.496;2023-05-20T00:40:21;100693.09;;;17.25;48.14
50702;BME280;36670;50.094;8.496;2023-05-20T00:42:47;100687.72;;;17.34;47.30
50702;BME280;36670;50.094;8.496;2023-05-20T00:45:12;100687.22;;;17.27;47.08
50702;BME280;36670;50.094;8.496;2023-05-20T00:47:37;100690.69;;;17.48;47.38
50702;BME280;36670;50.094;8.496;2023-05-20T00:50:03;100682.13;;;17.39;47.53
50702;BME280;36670;50.094;8.496;2023-05-20T00:52:28;100690.16;;;17.01;48.68
50702;BME280;36670;50.094;8.496;2023-05-20T00:54:55;100674.22;;;17.06;48.32
50702;BME280;36670;50.094;8.496;2023-05-20T00:57:20;100679.03;;;16.85;49.26
50702;BME280;36670;50.094;8.496;2023-05-20T00:59:45;100682.09;;;16.84;48.89
50702;BME280;36670;50.094;8.496;2023-05-20T01:02:10;100686.56;;;16.90;48.75
50702;BME280;36670;50.094;8.496;2023-05-20T01:04:36;100687.59;;;17.10;48.06
50702;BME280;36670;50.094;8.496;2023-05-20T01:07:01;100678.19;;;16.95;48.92
50702;BME280;36670;50.094;8.496;2023-05-20T01:09:28;100684.25;;;17.08;48.24
50702;BME280;36670;50.094;8.496;2023-05-20T01:12:07;100674.53;;;16.95;48.33
50702;BME280;36670;50.094;8.496;2023-05-20T01:14:36;100678.19;;;16.80;49.54
50702;BME280;36670;50.094;8.496;2023-05-20T01:17:01;100677.66;;;16.78;49.24
50702;BME280;36670;50.094;8.496;2023-05-20T01:21:59;100682.13;;;16.73;49.84
50702;BME280;36670;50.094;8.496;2023-05-20T01:24:25;100679.59;;;16.82;49.69
50702;BME280;36670;50.094;8.496;2023-05-20T01:26:50;100679.13;;;16.65;49.70
50702;BME280;36670;50.094;8.496;2023-05-20T01:29:15;100673.50;;;16.70;49.13
50702;BME280;36670;50.094;8.496;2023-05-20T01:31:42;100674.06;;;16.67;49.62
50702;BME280;36670;50.094;8.496;2023-05-20T01:34:08;100668.50;;;16.67;49.83
50702;BME280;36670;50.094;8.496;2023-05-20T01:36:33;100666.22;;;16.79;49.94
50702;BME280;36670;50.094;8.496;2023-05-20T01:38:58;100666.88;;;16.55;49.73
50702;BME280;36670;50.094;8.496;2023-05-20T01:41:26;100670.53;;;16.51;50.28
50702;BME280;36670;50.094;8.496;2023-05-20T01:43:52;100669.47;;;16.31;50.95
50702;BME280;36670;50.094;8.496;2023-05-20T01:46:17;100667.22;;;16.33;50.74
50702;BME280;36670;50.094;8.496;2023-05-20T01:48:42;100663.56;;;16.43;51.01
50702;BME280;36670;50.094;8.496;2023-05-20T01:51:07;100668.03;;;16.44;51.28
50702;BME280;36670;50.094;8.496;2023-05-20T01:53:32;100665.78;;;16.46;50.62
50702;BME280;36670;50.094;8.496;2023-05-20T01:55:58;100658.28;;;16.36;50.69
50702;BME280;36670;50.094;8.496;2023-05-20T01:58:23;100660.28;;;16.26;51.07
50702;BME280;36670;50.094;8.496;2023-05-20T02:00:48;100661.97;;;16.21;51.61
50702;BME280;36670;50.094;8.496;2023-05-20T02:03:13;100658.28;;;16.36;50.96
50702;BME280;36670;50.094;8.496;2023-05-20T02:05:38;100651.59;;;16.37;51.17
50702;BME280;36670;50.094;8.496;2023-05-20T02:08:04;100654.13;;;16.29;51.21
50702;BME280;36670;50.094;8.496;2023-05-20T02:10:29;100650.56;;;16.08;51.95
50702;BME280;36670;50.094;8.496;2023-05-20T02:12:54;100649.44;;;16.09;52.22
50702;BME280;36670;50.094;8.496;2023-05-20T02:15:19;100643.31;;;16.01;52.51
50702;BME280;36670;50.094;8.496;2023-05-20T02:17:45;100647.50;;;16.09;52.84
50702;BME280;36670;50.094;8.496;2023-05-20T02:20:10;100643.53;;;16.31;51.71
50702;BME280;36670;50.094;8.496;2023-05-20T02:22:36;100646.84;;;16.38;51.37
50702;BME280;36670;50.094;8.496;2023-05-20T02:25:01;100640.97;;;16.50;52.10
50702;BME280;36670;50.094;8.496;2023-05-20T02:27:27;100642.19;;;16.13;52.00
50702;BME280;36670;50.094;8.496;2023-05-20T02:29:52;100639.41;;;16.13;52.83
50702;BME280;36670;50.094;8.496;2023-05-20T02:32:17;100642.13;;;16.33;51.90
50702;BME280;36670;50.094;8.496;2023-05-20T02:34:44;100640.22;;;16.18;52.57
50702;BME280;36670;50.094;8.496;2023-05-20T02:37:09;100646.59;;;16.34;51.75
50702;BME280;36670;50.094;8.496;2023-05-20T02:39:34;100648.31;;;16.20;52.62
50702;BME280;36670;50.094;8.496;2023-05-20T02:42:00;100654.78;;;16.76;51.58
50702;BME280;36670;50.094;8.496;2023-05-20T02:44:25;100646.72;;;16.79;51.30
50702;BME280;36670;50.094;8.496;2023-05-20T02:46:50;100651.78;;;16.67;50.98
50702;BME280;36670;50.094;8.496;2023-05-20T02:49:15;100639.56;;;16.58;51.63
50702;BME280;36670;50.094;8.496;2023-05-20T02:51:41;100645.41;;;16.56;51.60
50702;BME280;36670;50.094;8.496;2023-05-20T02:54:06;100640.44;;;16.43;52.58
50702;BME280;36670;50.094;8.496;2023-05-20T02:56:31;100636.56;;;16.44;51.77
50702;BME280;36670;50.094;8.496;2023-05-20T02:58:57;100643.47;;;16.57;51.41
50702;BME280;36670;50.094;8.496;2023-05-20T03:01:22;100644.28;;;16.52;51.74
50702;BME280;36670;50.094;8.496;2023-05-20T03:03:47;100634.56;;;16.49;52.34
50702;BME280;36670;50.094;8.496;2023-05-20T03:06:12;100647.94;;;16.47;52.20
50702;BME280;36670;50.094;8.496;2023-05-20T03:08:37;100638.19;;;16.55;51.83
50702;BME280;36670;50.094;8.496;2023-05-20T03:11:03;100634.50;;;16.65;51.76
50702;BME280;36670;50.094;8.496;2023-05-20T03:13:28;100629.59;;;16.36;52.20
50702;BME280;36670;50.094;8.496;2023-05-20T03:15:54;100625.34;;;16.59;52.49
50702;BME280;36670;50.094;8.496;2023-05-20T03:18:19;100622.88;;;16.47;52.19
50702;BME280;36670;50.094;8.496;2023-05-20T03:20:44;100621.22;;;16.36;52.72
50702;BME280;36670;50.094;8.496;2023-05-20T03:23:10;100620.41;;;16.35;53.23
50702;BME280;36670;50.094;8.496;2023-05-20T03:25:35;100622.34;;;16.35;52.93
50702;BME280;36670;50.094;8.496;2023-05-20T03:28:01;100616.25;;;16.23;53.18
50702;BME280;36670;50.094;8.496;2023-05-20T03:30:26;100613.16;;;16.40;52.73
50702;BME280;36670;50.094;8.496;2023-05-20T03:32:52;100607.06;;;16.22;53.17
50702;BME280;36670;50.094;8.496;2023-05-20T03:35:17;100605.16;;;16.17;54.03
50702;BME280;36670;50.094;8.496;2023-05-20T03:37:42;100617.13;;;16.13;53.54
50702;BME280;36670;50.094;8.496;2023-05-20T03:40:08;100612.09;;;16.20;53.71
50702;BME280;36670;50.094;8.496;2023-05-20T03:42:36;100602.84;;;16.40;52.80
50702;BME280;36670;50.094;8.496;2023-05-20T03:45:02;100606.78;;;16.29;53.52
50702;BME280;36670;50.094;8.496;2023-05-20T03:47:28;100611.50;;;16.33;52.97
50702;BME280;36670;50.094;8.496;2023-05-20T03:49:53;100614.19;;;16.54;53.26
50702;BME280;36670;50.094;8.496;2023-05-20T03:52:18;100611.50;;;16.33;53.09
50702;BME280;36670;50.094;8.496;2023-05-20T03:54:43;100615.72;;;16.20;53.64
50702;BME280;36670;50.094;8.496;2023-05-20T03:57:08;100612.91;;;16.26;53.71
50702;BME280;36670;50.094;8.496;2023-05-20T03:59:34;100619.31;;;16.26;53.47
50702;BME280;36670;50.094;8.496;2023-05-20T04:01:59;100617.56;;;16.46;53.31
50702;BME280;36670;50.094;8.496;2023-05-20T04:04:25;100613.97;;;16.40;53.07
50702;BME280;36670;50.094;8.496;2023-05-20T04:06:50;100610.31;;;16.45;53.89
50702;BME280;36670;50.094;8.496;2023-05-20T04:09:15;100618.72;;;16.40;53.48
50702;BME280;36670;50.094;8.496;2023-05-20T04:11:40;100617.00;;;16.49;52.99
50702;BME280;36670;50.094;8.496;2023-05-20T04:14:07;100616.75;;;16.45;53.09
50702;BME280;36670;50.094;8.496;2023-05-20T04:16:34;100615.22;;;16.73;53.12
50702;BME280;36670;50.094;8.496;2023-05-20T04:19:01;100620.47;;;16.91;52.64
50702;BME280;36670;50.094;8.496;2023-05-20T04:21:26;100625.84;;;16.71;52.98
50702;BME280;36670;50.094;8.496;2023-05-20T04:23:51;100623.53;;;16.89;52.69
50702;BME280;36670;50.094;8.496;2023-05-20T04:26:16;100626.09;;;16.75;53.08
50702;BME280;36670;50.094;8.496;2023-05-20T04:28:42;100629.84;;;16.45;54.20
50702;BME280;36670;50.094;8.496;2023-05-20T04:31:07;100625.59;;;16.63;53.70
50702;BME280;36670;50.094;8.496;2023-05-20T04:33:32;100619.03;;;16.33;54.31
50702;BME280;36670;50.094;8.496;2023-05-20T04:36:01;100628.44;;;16.42;53.77
50702;BME280;36670;50.094;8.496;2023-05-20T04:38:27;100621.56;;;16.19;54.24
50702;BME280;36670;50.094;8.496;2023-05-20T04:40:54;100625.97;;;16.35;53.85
50702;BME280;36670;50.094;8.496;2023-05-20T04:43:21;100622.31;;;16.45;54.09
50702;BME280;36670;50.094;8.496;2023-05-20T04:45:46;100621.19;;;16.46;53.66
50702;BME280;36670;50.094;8.496;2023-05-20T04:48:12;100624.19;;;16.60;53.50
50702;BME280;36670;50.094;8.496;2023-05-20T04:50:38;100615.84;;;16.60;53.40
50702;BME280;36670;50.094;8.496;2023-05-20T04:53:03;100622.28;;;16.50;53.94
50702;BME280;36670;50.094;8.496;2023-05-20T04:55:28;100613.69;;;16.42;54.17
50702;BME280;36670;50.094;8.496;2023-05-20T04:57:54;100617.09;;;16.18;54.81
50702;BME280;36670;50.094;8.496;2023-05-20T05:00:20;100612.63;;;16.22;54.75
50702;BME280;36670;50.094;8.496;2023-05-20T05:02:45;100613.75;;;16.26;54.82
50702;BME280;36670;50.094;8.496;2023-05-20T05:05:10;100609.81;;;16.37;55.06
50702;BME280;36670;50.094;8.496;2023-05-20T05:07:36;100613.41;;;16.38;54.69
50702;BME280;36670;50.094;8.496;2023-05-20T05:10:01;100601.78;;;16.20;55.94
50702;BME280;36670;50.094;8.496;2023-05-20T05:12:26;100605.03;;;16.48;55.04
50702;BME280;36670;50.094;8.496;2023-05-20T05:14:51;100605.34;;;16.42;55.07
50702;BME280;36670;50.094;8.496;2023-05-20T05:17:16;100609.66;;;16.68;54.40
50702;BME280;36670;50.094;8.496;2023-05-20T05:19:42;100598.22;;;17.20;53.92
50702;BME280;36670;50.094;8.496;2023-05-20T05:22:07;100594.84;;;17.63;52.75
50702;BME280;36670;50.094;8.496;2023-05-20T05:24:32;100593.44;;;18.19;51.43
50702;BME280;36670;50.094;8.496;2023-05-20T05:26:57;100585.66;;;18.16;51.11
50702;BME280;36670;50.094;8.496;2023-05-20T05:29:22;100594.06;;;17.86;52.02
50702;BME280;36670;50.094;8.496;2023-05-20T05:31:47;100586.56;;;17.82;51.64
50702;BME280;36670;50.094;8.496;2023-05-20T05:34:13;100595.94;;;17.96;51.94
50702;BME280;36670;50.094;8.496;2023-05-20T05:36:38;100587.34;;;18.17;51.33
50702;BME280;36670;50.094;8.496;2023-05-20T05:39:04;100579.91;;;17.78;52.34
50702;BME280;36670;50.094;8.496;2023-05-20T05:41:29;100574.63;;;17.76;52.63
50702;BME280;36670;50.094;8.496;2023-05-20T05:43:54;100571.00;;;18.72;50.89
50702;BME280;36670;50.094;8.496;2023-05-20T05:46:19;100567.28;;;19.67;48.56
50702;BME280;36670;50.094;8.496;2023-05-20T05:48:45;100571.41;;;19.56;47.87
50702;BME280;36670;50.094;8.496;2023-05-20T05:51:13;100571.13;;;19.38;48.14
50702;BME280;36670;50.094;8.496;2023-05-20T05:53:38;100569.63;;;19.93;46.84
50702;BME280;36670;50.094;8.496;2023-05-20T05:56:03;100584.59;;;20.44;46.22
50702;BME280;36670;50.094;8.496;2023-05-20T05:58:28;100574.28;;;20.95;45.05
50702;BME280;36670;50.094;8.496;2023-05-20T06:00:53;100568.97;;;21.75;44.39
50702;BME280;36670;50.094;8.496;2023-05-20T06:03:19;100561.81;;;22.01;43.27
50702;BME280;36670;50.094;8.496;2023-05-20T06:05:44;100591.88;;;20.31;45.73
50702;BME280;36670;50.094;8.496;2023-05-20T06:08:10;100586.16;;;19.61;46.98
50702;BME280;36670;50.094;8.496;2023-05-20T06:10:35;100577.56;;;19.39;47.90
50702;BME280;36670;50.094;8.496;2023-05-20T06:13:00;100577.19;;;18.69;49.11
50702;BME280;36670;50.094;8.496;2023-05-20T06:15:25;100578.88;;;18.89;49.83
50702;BME280;36670;50.094;8.496;2023-05-20T06:17:50;100585.59;;;18.69;50.12
50702;BME280;36670;50.094;8.496;2023-05-20T06:20:16;100578.53;;;18.53;50.50
50702;BME280;36670;50.094;8.496;2023-05-20T06:22:41;100582.50;;;18.47;51.00
50702;BME280;36670;50.094;8.496;2023-05-20T06:25:06;100580.97;;;18.59;50.43
50702;BME280;36670;50.094;8.496;2023-05-20T06:27:31;100578.38;;;18.44;50.70
50702;BME280;36670;50.094;8.496;2023-05-20T06:29:57;100586.50;;;18.40;51.44
50702;BME280;36670;50.094;8.496;2023-05-20T06:32:22;100582.63;;;18.80;50.56
50702;BME280;36670;50.094;8.496;2023-05-20T06:34:47;100589.25;;;18.46;50.58
50702;BME280;36670;50.094;8.496;2023-05-20T06:37:12;100583.03;;;18.24;51.88
50702;BME280;36670;50.094;8.496;2023-05-20T06:39:37;100585.00;;;18.24;51.95
50702;BME280;36670;50.094;8.496;2023-05-20T06:42:03;100581.63;;;18.27;52.06
50702;BME280;36670;50.094;8.496;2023-05-20T06:44:28;100583.47;;;18.13;51.88
50702;BME280;36670;50.094;8.496;2023-05-20T06:46:53;100574.75;;;17.90;52.97
50702;BME280;36670;50.094;8.496;2023-05-20T06:49:18;100579.13;;;18.25;52.49
50702;BME280;36670;50.094;8.496;2023-05-20T06:51:43;100577.34;;;17.81;53.33
50702;BME280;36670;50.094;8.496;2023-05-20T06:54:09;100562.81;;;17.84;52.97
50702;BME280;36670;50.094;8.496;2023-05-20T06:56:34;100570.50;;;17.98;53.05
50702;BME280;36670;50.094;8.496;2023-05-20T06:59:00;100570.44;;;18.03;52.74
50702;BME280;36670;50.094;8.496;2023-05-20T07:01:25;100574.38;;;18.26;52.92
50702;BME280;36670;50.094;8.496;2023-05-20T07:03:50;100568.19;;;18.05;52.87
50702;BME280;36670;50.094;8.496;2023-05-20T07:06:15;100562.59;;;18.29;52.59
50702;BME280;36670;50.094;8.496;2023-05-20T07:08:40;100557.63;;;18.26;52.55
50702;BME280;36670;50.094;8.496;2023-05-20T07:11:05;100579.00;;;18.12;52.48
50702;BME280;36670;50.094;8.496;2023-05-20T07:13:31;100571.44;;;17.83;53.40
50702;BME280;36670;50.094;8.496;2023-05-20T07:15:56;100568.25;;;18.00;52.70
50702;BME280;36670;50.094;8.496;2023-05-20T07:18:21;100572.91;;;18.10;52.85
50702;BME280;36670;50.094;8.496;2023-05-20T07:20:46;100561.16;;;18.07;52.66
50702;BME280;36670;50.094;8.496;2023-05-20T07:23:11;100546.44;;;18.02;52.68
50702;BME280;36670;50.094;8.496;2023-05-20T07:25:37;100560.69;;;18.00;53.74
50702;BME280;36670;50.094;8.496;2023-05-20T07:28:02;100563.44;;;18.05;52.86
50702;BME280;36670;50.094;8.496;2023-05-20T07:30:27;100559.75;;;18.10;52.71
50702;BME280;36670;50.094;8.496;2023-05-20T07:32:52;100559.09;;;17.94;53.25
50702;BME280;36670;50.094;8.496;2023-05-20T07:35:18;100551.09;;;17.82;53.50
50702;BME280;36670;50.094;8.496;2023-05-20T07:37:43;100560.75;;;17.95;53.03
50702;BME280;36670;50.094;8.496;2023-05-20T07:40:08;100537.81;;;17.98;53.22
50702;BME280;36670;50.094;8.496;2023-05-20T07:42:33;100544.41;;;18.07;52.66
50702;BME280;36670;50.094;8.496;2023-05-20T07:44:59;100535.41;;;18.11;53.04
50702;BME280;36670;50.094;8.496;2023-05-20T07:47:24;100528.00;;;18.25;53.36
50702;BME280;36670;50.094;8.496;2023-05-20T07:49:49;100527.81;;;18.40;52.65
50702;BME280;36670;50.094;8.496;2023-05-20T07:52:14;100514.44;;;18.37;53.07
50702;BME280;36670;50.094;8.496;2023-05-20T07:54:40;100536.44;;;18.44;52.53
50702;BME280;36670;50.094;8.496;2023-05-20T07:57:05;100525.63;;;18.75;52.55
50702;BME280;36670;50.094;8.496;2023-05-20T07:59:30;100515.72;;;19.21;51.59
50702;BME280;36670;50.094;8.496;2023-05-20T08:01:56;100519.78;;;19.29;51.31
50702;BME280;36670;50.094;8.496;2023-05-20T08:04:21;100523.00;;;19.03;51.92
50702;BME280;36670;50.094;8.496;2023-05-20T08:06:46;100523.25;;;18.88;51.66
50702;BME280;36670;50.094;8.496;2023-05-20T08:09:11;100549.25;;;18.88;51.73
50702;BME280;36670;50.094;8.496;2023-05-20T08:11:36;100518.75;;;19.25;50.81
50702;BME280;36670;50.094;8.496;2023-05-20T08:14:01;100528.09;;;19.01;51.40
50702;BME280;36670;50.094;8.496;2023-05-20T08:16:27;100527.66;;;19.08;51.40
50702;BME280;36670;50.094;8.496;2023-05-20T08:18:52;100534.31;;;19.12;51.22
50702;BME280;36670;50.094;8.496;2023-05-20T08:21:17;100530.81;;;19.39;50.81
50702;BME280;36670;50.094;8.496;2023-05-20T08:23:42;100527.00;;;19.49;50.74
50702;BME280;36670;50.094;8.496;2023-05-20T08:26:07;100526.91;;;19.54;50.84
50702;BME280;36670;50.094;8.496;2023-05-20T08:28:32;100515.47;;;19.51;50.91
50702;BME280;36670;50.094;8.496;2023-05-20T08:31:00;100530.03;;;19.53;51.57
50702;BME280;36670;50.094;8.496;2023-05-20T08:33:25;100513.41;;;19.56;50.71
50702;BME280;36670;50.094;8.496;2023-05-20T08:35:50;100513.34;;;19.75;50.11
50702;BME280;36670;50.094;8.496;2023-05-20T08:38:15;100516.91;;;20.37;49.77
50702;BME280;36670;50.094;8.496;2023-05-20T08:40:41;100515.63;;;20.43;49.70
50702;BME280;36670;50.094;8.496;2023-05-20T08:43:06;100516.81;;;20.28;49.63
50702;BME280;36670;50.094;8.496;2023-05-20T08:45:32;100514.81;;;20.42;49.84
50702;BME280;36670;50.094;8.496;2023-05-20T08:47:57;100516.47;;;20.71;48.56
50702;BME280;36670;50.094;8.496;2023-05-20T08:50:22;100505.06;;;20.40;48.76
50702;BME280;36670;50.094;8.496;2023-05-20T08:52:48;100504.03;;;20.22;49.37
50702;BME280;36670;50.094;8.496;2023-05-20T08:55:14;100505.25;;;19.74;49.90
50702;BME280;36670;50.094;8.496;2023-05-20T08:57:40;100507.25;;;19.87;50.56
50702;BME280;36670;50.094;8.496;2023-05-20T09:00:06;100495.09;;;19.78;50.72
50702;BME280;36670;50.094;8.496;2023-05-20T09:02:37;100512.25;;;20.04;50.31
50702;BME280;36670;50.094;8.496;2023-05-20T09:05:02;100520.75;;;20.13;50.06
50702;BME280;36670;50.094;8.496;2023-05-20T09:07:29;100508.50;;;20.23;50.06
50702;BME280;36670;50.094;8.496;2023-05-20T09:09:54;100509.69;;;20.72;49.84
50702;BME280;36670;50.094;8.496;2023-05-20T09:12:20;100515.22;;;21.23;48.49
50702;BME280;36670;50.094;8.496;2023-05-20T09:14:45;100513.50;;;20.76;48.98
50702;BME280;36670;50.094;8.496;2023-05-20T09:17:11;100523.59;;;20.77;49.16
50702;BME280;36670;50.094;8.496;2023-05-20T09:19:36;100521.31;;;20.79;49.33
50702;BME280;36670;50.094;8.496;2023-05-20T09:22:02;100510.22;;;20.97;48.98
50702;BME280;36670;50.094;8.496;2023-05-20T09:24:27;100525.38;;;21.10;48.43
50702;BME280;36670;50.094;8.496;2023-05-20T09:26:52;100517.50;;;21.21;48.26
50702;BME280;36670;50.094;8.496;2023-05-20T09:29:18;100516.31;;;21.13;48.10
50702;BME280;36670;50.094;8.496;2023-05-20T09:31:45;100499.75;;;20.89;48.56
50702;BME280;36670;50.094;8.496;2023-05-20T09:34:10;100508.31;;;20.84;49.64
50702;BME280;36670;50.094;8.496;2023-05-20T09:36:36;100516.63;;;21.11;48.25
50702;BME280;36670;50.094;8.496;2023-05-20T09:39:03;100504.75;;;20.92;48.33
50702;BME280;36670;50.094;8.496;2023-05-20T09:41:32;100498.41;;;21.31;47.86
50702;BME280;36670;50.094;8.496;2023-05-20T09:43:58;100490.53;;;21.34;48.10
50702;BME280;36670;50.094;8.496;2023-05-20T09:46:23;100505.00;;;21.27;47.84
50702;BME280;36670;50.094;8.496;2023-05-20T09:48:49;100504.41;;;21.39;46.62
50702;BME280;36670;50.094;8.496;2023-05-20T09:51:14;100500.81;;;20.79;48.17
50702;BME280;36670;50.094;8.496;2023-05-20T09:53:40;100497.97;;;20.70;48.81
50702;BME280;36670;50.094;8.496;2023-05-20T09:56:05;100494.03;;;20.57;49.10
50702;BME280;36670;50.094;8.496;2023-05-20T09:58:31;100493.06;;;20.62;49.55
50702;BME280;36670;50.094;8.496;2023-05-20T10:00:57;100488.47;;;21.03;48.70
50702;BME280;36670;50.094;8.496;2023-05-20T10:03:22;100485.22;;;20.87;48.54
50702;BME280;36670;50.094;8.496;2023-05-20T10:06:10;100490.69;;;20.69;49.39
50702;BME280;36670;50.094;8.496;2023-05-20T10:11:25;100499.25;;;20.87;49.43
50702;BME280;36670;50.094;8.496;2023-05-20T10:19:11;100474.75;;;20.78;48.81
50702;BME280;36670;50.094;8.496;2023-05-20T10:21:40;100492.63;;;21.05;49.08
50702;BME280;36670;50.094;8.496;2023-05-20T10:24:05;100478.41;;;21.24;48.33
50702;BME280;36670;50.094;8.496;2023-05-20T10:26:35;100478.28;;;21.61;48.40
50702;BME280;36670;50.094;8.496;2023-05-20T10:29:01;100483.78;;;21.66;47.72
50702;BME280;36670;50.094;8.496;2023-05-20T10:31:26;100490.66;;;21.28;47.51
50702;BME280;36670;50.094;8.496;2023-05-20T10:33:52;100481.06;;;21.52;48.34
50702;BME280;36670;50.094;8.496;2023-05-20T10:36:35;100477.28;;;21.34;48.31
50702;BME280;36670;50.094;8.496;2023-05-20T10:39:01;100470.22;;;21.14;49.07
50702;BME280;36670;50.094;8.496;2023-05-20T10:41:29;100475.34;;;21.66;48.05
50702;BME280;36670;50.094;8.496;2023-05-20T10:44:01;100471.34;;;22.07;46.90
50702;BME280;36670;50.094;8.496;2023-05-20T10:46:27;100473.53;;;22.10;47.03
50702;BME280;36670;50.094;8.496;2023-05-20T10:48:52;100465.91;;;22.11;47.23
50702;BME280;36670;50.094;8.496;2023-05-20T10:51:17;100468.41;;;22.12;46.70
50702;BME280;36670;50.094;8.496;2023-05-20T10:53:44;100477.69;;;22.30;46.41
50702;BME280;36670;50.094;8.496;2023-05-20T10:56:16;100465.03;;;22.50;45.06
50702;BME280;36670;50.094;8.496;2023-05-20T10:58:42;100452.66;;;22.03;45.80
50702;BME280;36670;50.094;8.496;2023-05-20T11:01:08;100446.50;;;21.92;46.52
50702;BME280;36670;50.094;8.496;2023-05-20T11:03:34;100439.47;;;22.29;45.28
50702;BME280;36670;50.094;8.496;2023-05-20T11:05:59;100443.75;;;22.18;45.64
50702;BME280;36670;50.094;8.496;2023-05-20T11:08:27;100447.56;;;22.13;45.44
50702;BME280;36670;50.094;8.496;2023-05-20T11:10:54;100447.06;;;22.11;46.15
50702;BME280;36670;50.094;8.496;2023-05-20T11:13:20;100439.72;;;21.84;46.53
50702;BME280;36670;50.094;8.496;2023-05-20T11:15:45;100428.38;;;22.15;46.19
50702;BME280;36670;50.094;8.496;2023-05-20T11:18:12;100416.03;;;22.52;45.98
50702;BME280;36670;50.094;8.496;2023-05-20T11:20:39;100412.06;;;22.70;45.29
50702;BME280;36670;50.094;8.496;2023-05-20T11:23:04;100410.56;;;22.64;44.98
50702;BME280;36670;50.094;8.496;2023-05-20T11:25:30;100436.13;;;22.10;46.07
50702;BME280;36670;50.094;8.496;2023-05-20T11:27:56;100438.72;;;21.80;46.45
50702;BME280;36670;50.094;8.496;2023-05-20T11:30:21;100421.97;;;21.66;46.40
50702;BME280;36670;50.094;8.496;2023-05-20T11:32:57;100418.59;;;22.04;45.68
50702;BME280;36670;50.094;8.496;2023-05-20T11:35:23;100421.25;;;22.01;46.03
50702;BME280;36670;50.094;8.496;2023-05-20T11:37:55;100439.59;;;21.98;45.73
50702;BME280;36670;50.094;8.496;2023-05-20T11:40:25;100430.41;;;21.66;46.80
50702;BME280;36670;50.094;8.496;2023-05-20T11:42:54;100441.69;;;21.83;46.88
50702;BME280;36670;50.094;8.496;2023-05-20T11:45:19;100427.88;;;22.05;46.99
50702;BME280;36670;50.094;8.496;2023-05-20T11:47:45;100433.34;;;22.19;45.14
50702;BME280;36670;50.094;8.496;2023-05-20T11:50:10;100423.69;;;21.93;46.22
50702;BME280;36670;50.094;8.496;2023-05-20T11:52:40;100427.00;;;21.95;45.98
50702;BME280;36670;50.094;8.496;2023-05-20T11:55:09;100420.06;;;21.93;45.65
50702;BME280;36670;50.094;8.496;2023-05-20T11:57:35;100407.91;;;22.32;45.39
50702;BME280;36670;50.094;8.496;2023-05-20T12:00:01;100399.47;;;22.50;44.74
50702;BME280;36670;50.094;8.496;2023-05-20T12:02:26;100407.47;;;21.90;45.58
50702;BME280;36670;50.094;8.496;2023-05-20T12:04:52;100404.25;;;22.32;44.98
50702;BME280;36670;50.094;8.496;2023-05-20T12:07:17;100405.44;;;22.66;45.42
50702;BME280;36670;50.094;8.496;2023-05-20T12:09:42;100389.19;;;22.80;44.30
50702;BME280;36670;50.094;8.496;2023-05-20T12:12:07;100410.91;;;22.36;44.79
50702;BME280;36670;50.094;8.496;2023-05-20T12:14:35;100407.19;;;22.09;45.27
50702;BME280;36670;50.094;8.496;2023-05-20T12:17:00;100421.44;;;22.13;45.77
50702;BME280;36670;50.094;8.496;2023-05-20T12:19:25;100411.81;;;22.05;45.79
50702;BME280;36670;50.094;8.496;2023-05-20T12:21:50;100416.53;;;22.45;44.70
50702;BME280;36670;50.094;8.496;2023-05-20T12:24:16;100413.69;;;22.19;45.92
50702;BME280;36670;50.094;8.496;2023-05-20T12:26:41;100422.41;;;21.99;45.67
50702;BME280;36670;50.094;8.496;2023-05-20T12:29:06;100415.81;;;22.13;45.90
50702;BME280;36670;50.094;8.496;2023-05-20T12:31:32;100424.41;;;22.08;45.10
50702;BME280;36670;50.094;8.496;2023-05-20T12:33:57;100407.22;;;21.29;47.24
50702;BME280;36670;50.094;8.496;2023-05-20T12:36:22;100421.38;;;21.24;47.35
50702;BME280;36670;50.094;8.496;2023-05-20T12:38:47;100417.34;;;21.70;46.48
50702;BME280;36670;50.094;8.496;2023-05-20T12:41:12;100413.28;;;21.94;46.09
50702;BME280;36670;50.094;8.496;2023-05-20T12:43:38;100405.19;;;22.01;46.11
50702;BME280;36670;50.094;8.496;2023-05-20T12:46:03;100406.69;;;22.07;45.45
50702;BME280;36670;50.094;8.496;2023-05-20T12:48:28;100395.75;;;21.97;45.79
50702;BME280;36670;50.094;8.496;2023-05-20T12:50:54;100399.59;;;22.10;45.58
50702;BME280;36670;50.094;8.496;2023-05-20T12:53:19;100407.53;;;21.99;45.95